Time;durP1;ratioP1;P1;durP2;ratioP2;P2;SDS_P1;SDS_P2;PMS_P1;PMS_P2;Temp;Humidity;BMP_temperature;BMP_pressure;BME280_temperature;BME280_humidity;BME280_pressure;Samples;Min_cycle;Max_cycle;Signal;HPM_P1;HPM_P2
2022/10/31 00:01:12;;;;;;;264.20;84.70;;;;;;;;;;4975797;28;20039;-63
2022/10/31 00:03:56;;;;;;;269.00;87.87;;;;;;;;;;4978936;28;20474;-62
2022/10/31 00:06:40;;;;;;;278.37;89.63;;;;;;;;;;4975458;28;20026;-62
2022/10/31 00:09:24;;;;;;;269.53;90.27;;;;;;;;;;4978329;28;20432;-63
2022/10/31 00:12:08;;;;;;;290.73;92.00;;;;;;;;;;4978961;28;20037;-64
2022/10/31 00:14:51;;;;;;;289.97;93.57;;;;;;;;;;4979304;28;20034;-63
2022/10/31 00:17:36;;;;;;;293.30;97.00;;;;;;;;;;4974027;28;20042;-62
2022/10/31 00:20:19;;;;;;;291.07;94.73;;;;;;;;;;4974888;28;20030;-63
2022/10/31 00:23:03;;;;;;;296.60;96.03;;;;;;;;;;4977507;28;20083;-62
2022/10/31 00:25:47;;;;;;;305.00;96.00;;;;;;;;;;4984228;28;20464;-62
2022/10/31 00:28:31;;;;;;;278.63;92.07;;;;;;;;;;4971995;28;20023;-63
2022/10/31 00:31:15;;;;;;;274.83;91.17;;;;;;;;;;4982987;28;20050;-62
2022/10/31 00:33:59;;;;;;;325.40;96.03;;;;;;;;;;4971151;28;20022;-63
2022/10/31 00:36:43;;;;;;;339.03;95.60;;;;;;;;;;4976955;28;20118;-63
2022/10/31 00:39:26;;;;;;;394.90;97.63;;;;;;;;;;4978513;28;20033;-62
2022/10/31 00:42:10;;;;;;;292.77;93.53;;;;;;;;;;4974709;28;20450;-63
2022/10/31 00:44:54;;;;;;;332.57;97.93;;;;;;;;;;4977781;28;20481;-63
2022/10/31 00:47:38;;;;;;;300.00;92.60;;;;;;;;;;4978833;28;20034;-63
2022/10/31 00:50:22;;;;;;;312.17;93.37;;;;;;;;;;4980963;28;20038;-62
2022/10/31 00:53:05;;;;;;;305.37;91.97;;;;;;;;;;4975956;28;22107;-62
2022/10/31 00:55:49;;;;;;;290.80;89.90;;;;;;;;;;4979190;28;20026;-63
2022/10/31 00:58:33;;;;;;;297.00;91.13;;;;;;;;;;4975536;28;20031;-63
2022/10/31 01:01:17;;;;;;;318.40;95.80;;;;;;;;;;4980092;28;20554;-63
2022/10/31 01:04:00;;;;;;;302.60;89.87;;;;;;;;;;4978017;28;20035;-63
2022/10/31 01:06:44;;;;;;;321.47;92.57;;;;;;;;;;4977261;28;20427;-62
2022/10/31 01:09:28;;;;;;;343.67;94.53;;;;;;;;;;4984008;28;20022;-62
2022/10/31 01:12:12;;;;;;;304.57;91.67;;;;;;;;;;4979681;28;20045;-62
2022/10/31 01:14:56;;;;;;;315.13;90.60;;;;;;;;;;4978653;28;20054;-62
2022/10/31 01:17:40;;;;;;;319.90;92.63;;;;;;;;;;4973389;28;20470;-62
2022/10/31 01:20:23;;;;;;;338.23;95.77;;;;;;;;;;4984324;28;20103;-62
2022/10/31 01:23:07;;;;;;;336.73;98.97;;;;;;;;;;4975866;28;20030;-63
2022/10/31 01:25:51;;;;;;;345.67;100.50;;;;;;;;;;4980940;28;20042;-63
2022/10/31 01:28:35;;;;;;;317.20;92.63;;;;;;;;;;4975651;28;20019;-63
2022/10/31 01:31:19;;;;;;;340.50;98.93;;;;;;;;;;4979425;28;20178;-62
2022/10/31 01:34:02;;;;;;;350.27;102.40;;;;;;;;;;4975597;28;20030;-63
2022/10/31 01:36:50;;;;;;;371.87;103.60;;;;;;;;;;4978309;28;20109;-62
2022/10/31 01:39:34;;;;;;;342.17;101.97;;;;;;;;;;4973589;28;20035;-62
2022/10/31 01:42:18;;;;;;;340.33;98.13;;;;;;;;;;4978866;28;20034;-64
2022/10/31 01:45:02;;;;;;;345.67;101.90;;;;;;;;;;4977419;28;20030;-63
2022/10/31 01:47:46;;;;;;;333.20;96.33;;;;;;;;;;4972522;28;20056;-62
2022/10/31 01:50:29;;;;;;;340.77;99.97;;;;;;;;;;4978261;28;20498;-62
2022/10/31 01:53:13;;;;;;;359.50;99.83;;;;;;;;;;4978211;28;20053;-62
2022/10/31 01:55:57;;;;;;;376.77;103.70;;;;;;;;;;4976956;28;20032;-63
2022/10/31 01:58:40;;;;;;;350.60;98.07;;;;;;;;;;4975477;28;20037;-63
2022/10/31 02:01:24;;;;;;;350.73;97.17;;;;;;;;;;4981446;28;20045;-62
2022/10/31 02:04:08;;;;;;;350.03;98.73;;;;;;;;;;4974118;28;20101;-63
2022/10/31 02:06:52;;;;;;;379.40;99.60;;;;;;;;;;4976793;28;20347;-63
2022/10/31 02:09:36;;;;;;;330.17;92.30;;;;;;;;;;4982172;28;20047;-62
2022/10/31 02:12:19;;;;;;;341.30;95.67;;;;;;;;;;4979276;28;20961;-62
2022/10/31 02:15:03;;;;;;;372.07;98.90;;;;;;;;;;4976481;28;20029;-62
2022/10/31 02:17:47;;;;;;;338.43;93.00;;;;;;;;;;4972534;28;20039;-62
2022/10/31 02:20:31;;;;;;;358.67;95.67;;;;;;;;;;4973524;28;20036;-62
2022/10/31 02:23:15;;;;;;;404.43;98.77;;;;;;;;;;4978378;28;20055;-62
2022/10/31 02:25:58;;;;;;;428.30;96.17;;;;;;;;;;4971812;28;20065;-63
2022/10/31 02:28:42;;;;;;;383.63;94.17;;;;;;;;;;4971025;28;20062;-62
2022/10/31 02:31:26;;;;;;;337.53;91.17;;;;;;;;;;5010806;28;20104;-62
2022/10/31 02:34:10;;;;;;;343.03;92.67;;;;;;;;;;4972421;28;20053;-63
2022/10/31 02:36:54;;;;;;;364.90;96.37;;;;;;;;;;4976189;28;20027;-63
2022/10/31 02:39:38;;;;;;;717.90;108.87;;;;;;;;;;4975045;28;20034;-62
2022/10/31 02:42:21;;;;;;;1114.17;120.63;;;;;;;;;;4979041;28;20570;-62
2022/10/31 02:45:05;;;;;;;486.97;96.23;;;;;;;;;;4975196;28;20113;-62
2022/10/31 02:47:49;;;;;;;393.53;92.77;;;;;;;;;;4978006;28;20444;-62
2022/10/31 02:50:32;;;;;;;375.23;93.13;;;;;;;;;;4975620;28;20530;-63
2022/10/31 02:53:16;;;;;;;322.17;87.17;;;;;;;;;;4978121;28;20049;-62
2022/10/31 02:56:00;;;;;;;367.43;92.97;;;;;;;;;;4974845;28;20095;-63
2022/10/31 02:58:44;;;;;;;362.10;92.73;;;;;;;;;;4971105;28;20031;-63
2022/10/31 03:01:28;;;;;;;393.87;96.20;;;;;;;;;;4976060;28;20037;-62
2022/10/31 03:04:11;;;;;;;381.47;94.70;;;;;;;;;;4976359;28;20049;-62
2022/10/31 03:06:55;;;;;;;366.03;89.80;;;;;;;;;;4977733;28;20026;-63
2022/10/31 03:09:39;;;;;;;318.97;84.27;;;;;;;;;;4972158;28;20033;-62
2022/10/31 03:12:23;;;;;;;385.87;92.17;;;;;;;;;;4977928;28;20074;-62
2022/10/31 03:15:06;;;;;;;348.57;88.60;;;;;;;;;;4980121;28;20041;-62
2022/10/31 03:17:50;;;;;;;382.80;91.00;;;;;;;;;;4976696;28;20033;-62
2022/10/31 03:20:34;;;;;;;400.93;93.77;;;;;;;;;;4977009;28;20117;-62
2022/10/31 03:23:18;;;;;;;305.80;82.97;;;;;;;;;;4974728;28;20024;-62
2022/10/31 03:26:02;;;;;;;316.57;83.73;;;;;;;;;;4972445;28;20027;-62
2022/10/31 03:28:45;;;;;;;352.73;85.57;;;;;;;;;;4972615;28;20123;-62
2022/10/31 03:31:29;;;;;;;344.07;88.63;;;;;;;;;;4979670;28;20108;-62
2022/10/31 03:34:13;;;;;;;370.50;90.23;;;;;;;;;;4976328;28;20026;-62
2022/10/31 03:36:57;;;;;;;373.47;90.03;;;;;;;;;;4977274;28;20076;-62
2022/10/31 03:39:41;;;;;;;875.77;101.37;;;;;;;;;;4973785;28;20114;-62
2022/10/31 03:42:24;;;;;;;1558.57;121.00;;;;;;;;;;4978558;28;20042;-62
2022/10/31 03:45:08;;;;;;;933.07;107.93;;;;;;;;;;4977910;28;20382;-62
2022/10/31 03:47:52;;;;;;;790.77;100.73;;;;;;;;;;4981147;28;20038;-63
2022/10/31 03:50:36;;;;;;;756.30;92.50;;;;;;;;;;4977532;28;20095;-62
2022/10/31 03:53:19;;;;;;;664.13;87.73;;;;;;;;;;4980274;28;20038;-63
2022/10/31 03:56:03;;;;;;;696.60;91.57;;;;;;;;;;4977769;28;20034;-62
2022/10/31 03:58:47;;;;;;;786.83;96.67;;;;;;;;;;4976764;28;20041;-63
2022/10/31 04:01:31;;;;;;;668.10;92.70;;;;;;;;;;4977387;28;20061;-62
2022/10/31 04:04:14;;;;;;;506.53;86.83;;;;;;;;;;4978298;28;20026;-64
2022/10/31 04:06:58;;;;;;;265.53;74.60;;;;;;;;;;4979492;28;20029;-62
2022/10/31 04:09:42;;;;;;;283.53;73.23;;;;;;;;;;4977336;28;20030;-62
2022/10/31 04:12:26;;;;;;;254.07;71.20;;;;;;;;;;4976143;28;20482;-62
2022/10/31 04:15:10;;;;;;;312.40;73.20;;;;;;;;;;4980031;28;20033;-62
2022/10/31 04:17:53;;;;;;;244.50;66.63;;;;;;;;;;4974889;28;20053;-62
2022/10/31 04:20:37;;;;;;;207.43;66.50;;;;;;;;;;4978128;28;20088;-62
2022/10/31 04:23:21;;;;;;;236.13;69.30;;;;;;;;;;4978831;28;20037;-62
2022/10/31 04:26:05;;;;;;;276.40;72.53;;;;;;;;;;4972905;28;20023;-62
2022/10/31 04:28:48;;;;;;;581.43;89.23;;;;;;;;;;5009047;28;20588;-62
2022/10/31 04:31:32;;;;;;;485.20;85.03;;;;;;;;;;4974970;28;20129;-63
2022/10/31 04:34:16;;;;;;;701.20;97.00;;;;;;;;;;4979715;28;20088;-62
2022/10/31 04:37:00;;;;;;;886.13;104.43;;;;;;;;;;4978017;28;20030;-62
2022/10/31 04:39:44;;;;;;;731.73;98.90;;;;;;;;;;4979221;28;20083;-62
2022/10/31 04:42:27;;;;;;;905.03;106.07;;;;;;;;;;4974747;28;20033;-62
2022/10/31 04:45:11;;;;;;;943.57;108.97;;;;;;;;;;4980332;28;20085;-62
2022/10/31 04:47:55;;;;;;;854.70;105.63;;;;;;;;;;4979377;28;20030;-62
2022/10/31 04:50:39;;;;;;;716.43;102.03;;;;;;;;;;4981711;28;20103;-62
2022/10/31 04:53:22;;;;;;;878.23;111.27;;;;;;;;;;4977819;28;20041;-62
2022/10/31 04:56:06;;;;;;;738.33;103.80;;;;;;;;;;4979980;28;20052;-62
2022/10/31 04:58:50;;;;;;;759.67;107.10;;;;;;;;;;4985008;28;20382;-62
2022/10/31 05:01:34;;;;;;;776.97;109.27;;;;;;;;;;4981467;28;20061;-62
2022/10/31 05:04:17;;;;;;;768.20;107.60;;;;;;;;;;4979346;28;20079;-63
2022/10/31 05:07:01;;;;;;;737.30;104.77;;;;;;;;;;4979315;28;20027;-62
2022/10/31 05:09:45;;;;;;;656.47;98.13;;;;;;;;;;4980049;28;20027;-62
2022/10/31 05:12:29;;;;;;;721.13;106.23;;;;;;;;;;4978789;28;20060;-62
2022/10/31 05:15:12;;;;;;;583.67;95.87;;;;;;;;;;4972988;28;20030;-63
2022/10/31 05:17:56;;;;;;;575.03;92.63;;;;;;;;;;4980201;28;20031;-63
2022/10/31 05:20:40;;;;;;;473.93;87.80;;;;;;;;;;4981505;28;20033;-62
2022/10/31 05:23:24;;;;;;;591.30;94.90;;;;;;;;;;4977972;28;20527;-63
2022/10/31 05:26:07;;;;;;;689.43;99.07;;;;;;;;;;4976836;28;20113;-62
2022/10/31 05:28:51;;;;;;;647.23;98.77;;;;;;;;;;4977110;28;20030;-63
2022/10/31 05:31:35;;;;;;;636.93;97.03;;;;;;;;;;4977173;28;20042;-62
2022/10/31 05:34:19;;;;;;;516.30;91.17;;;;;;;;;;4977584;28;20034;-62
2022/10/31 05:37:02;;;;;;;449.70;80.83;;;;;;;;;;4975246;28;20026;-62
2022/10/31 05:39:46;;;;;;;475.90;78.63;;;;;;;;;;4976024;28;20047;-62
2022/10/31 05:42:30;;;;;;;619.00;88.80;;;;;;;;;;4978163;28;20038;-62
2022/10/31 05:45:14;;;;;;;681.73;94.50;;;;;;;;;;4977650;28;20731;-62
2022/10/31 05:47:58;;;;;;;594.90;87.37;;;;;;;;;;4979080;28;20035;-62
2022/10/31 05:50:41;;;;;;;544.27;88.43;;;;;;;;;;4975651;28;20065;-62
2022/10/31 05:53:25;;;;;;;569.10;88.53;;;;;;;;;;4976639;28;20134;-64
2022/10/31 05:56:09;;;;;;;663.67;95.97;;;;;;;;;;4978462;28;20030;-62
2022/10/31 05:58:52;;;;;;;601.57;89.47;;;;;;;;;;4972078;28;20487;-63
2022/10/31 06:01:36;;;;;;;554.07;88.33;;;;;;;;;;4974905;28;20026;-63
2022/10/31 06:04:20;;;;;;;434.97;84.43;;;;;;;;;;4973557;28;20019;-62
2022/10/31 06:07:04;;;;;;;457.23;84.73;;;;;;;;;;4973919;28;20030;-64
2022/10/31 06:09:48;;;;;;;539.63;92.83;;;;;;;;;;4975648;28;20038;-62
2022/10/31 06:12:32;;;;;;;382.27;85.27;;;;;;;;;;4976391;28;20354;-62
2022/10/31 06:15:15;;;;;;;517.77;97.50;;;;;;;;;;4977990;28;20034;-62
2022/10/31 06:17:59;;;;;;;765.53;104.17;;;;;;;;;;4970651;28;20030;-62
2022/10/31 06:20:43;;;;;;;474.50;90.40;;;;;;;;;;4978740;28;20053;-62
2022/10/31 06:23:27;;;;;;;448.40;89.13;;;;;;;;;;4979062;28;20466;-63
2022/10/31 06:26:11;;;;;;;465.03;91.63;;;;;;;;;;4975093;28;20029;-63
2022/10/31 06:28:54;;;;;;;355.70;86.43;;;;;;;;;;4972991;28;20069;-62
2022/10/31 06:31:38;;;;;;;349.70;83.47;;;;;;;;;;4972730;28;20533;-63
2022/10/31 06:34:22;;;;;;;402.07;87.93;;;;;;;;;;4976271;28;20035;-62
2022/10/31 06:37:06;;;;;;;442.07;93.30;;;;;;;;;;4975915;28;20101;-62
2022/10/31 06:39:50;;;;;;;571.43;105.00;;;;;;;;;;4970636;28;20100;-62
2022/10/31 06:42:34;;;;;;;653.73;110.73;;;;;;;;;;4969559;28;20022;-64
2022/10/31 06:45:18;;;;;;;605.03;106.87;;;;;;;;;;4962373;28;20054;-62
2022/10/31 06:48:01;;;;;;;542.77;100.73;;;;;;;;;;4961286;28;20034;-63
2022/10/31 06:50:45;;;;;;;577.33;101.43;;;;;;;;;;4962171;28;20027;-63
2022/10/31 06:53:32;;;;;;;740.27;110.77;;;;;;;;;;4958301;28;20027;-62
2022/10/31 06:56:16;;;;;;;749.07;110.30;;;;;;;;;;4960806;28;20030;-62
2022/10/31 06:58:59;;;;;;;896.30;170.07;;;;;;;;;;4967458;28;20043;-63
2022/10/31 07:01:43;;;;;;;834.63;211.27;;;;;;;;;;4968482;28;20023;-64
2022/10/31 07:04:27;;;;;;;696.57;119.20;;;;;;;;;;4986833;28;20585;-63
2022/10/31 07:07:11;;;;;;;688.23;111.43;;;;;;;;;;4956199;28;20552;-63
2022/10/31 07:09:55;;;;;;;604.07;105.77;;;;;;;;;;4981261;28;20036;-63
2022/10/31 07:12:39;;;;;;;448.47;97.40;;;;;;;;;;4997389;28;20150;-62
2022/10/31 07:15:22;;;;;;;591.30;151.63;;;;;;;;;;5020512;28;20486;-63
2022/10/31 07:18:06;;;;;;;447.90;95.73;;;;;;;;;;4961478;28;20648;-63
2022/10/31 07:20:50;;;;;;;422.87;95.13;;;;;;;;;;4963951;28;20027;-63
2022/10/31 07:23:34;;;;;;;460.47;234.20;;;;;;;;;;4994804;28;20387;-63
2022/10/31 07:26:17;;;;;;;460.57;98.67;;;;;;;;;;4964822;28;20038;-62
2022/10/31 07:29:01;;;;;;;498.13;95.83;;;;;;;;;;4967811;28;20031;-63
2022/10/31 07:31:45;;;;;;;569.30;102.20;;;;;;;;;;4968286;28;20478;-63
2022/10/31 07:34:29;;;;;;;496.47;99.80;;;;;;;;;;4971270;28;20097;-62
2022/10/31 07:37:13;;;;;;;466.57;95.33;;;;;;;;;;4964605;28;20490;-62
2022/10/31 07:39:56;;;;;;;524.43;98.93;;;;;;;;;;4976369;28;20080;-63
2022/10/31 07:42:40;;;;;;;484.60;97.67;;;;;;;;;;4989418;28;20040;-63
2022/10/31 07:45:24;;;;;;;503.17;96.47;;;;;;;;;;4973145;28;20382;-62
2022/10/31 07:48:07;;;;;;;438.90;87.47;;;;;;;;;;4988207;28;20035;-63
2022/10/31 07:50:51;;;;;;;496.33;93.37;;;;;;;;;;4977667;28;20450;-63
2022/10/31 07:53:35;;;;;;;508.03;92.00;;;;;;;;;;4969315;28;20113;-63
2022/10/31 07:56:19;;;;;;;418.60;85.10;;;;;;;;;;4968297;28;20136;-63
2022/10/31 07:59:03;;;;;;;442.63;87.57;;;;;;;;;;4967972;28;20031;-63
2022/10/31 08:01:46;;;;;;;384.87;79.23;;;;;;;;;;4996549;28;20039;-63
2022/10/31 08:04:30;;;;;;;478.53;84.93;;;;;;;;;;5005169;28;20034;-63
2022/10/31 08:07:14;;;;;;;423.47;82.43;;;;;;;;;;4972469;28;20042;-63
2022/10/31 08:09:58;;;;;;;382.17;79.23;;;;;;;;;;4962968;28;20058;-64
2022/10/31 08:12:42;;;;;;;388.53;79.97;;;;;;;;;;4985062;28;20097;-63
2022/10/31 08:15:26;;;;;;;457.07;82.57;;;;;;;;;;4978641;28;20145;-63
2022/10/31 08:18:10;;;;;;;358.63;76.50;;;;;;;;;;4965119;28;20039;-63
2022/10/31 08:20:54;;;;;;;400.93;82.80;;;;;;;;;;4991832;28;20027;-63
2022/10/31 08:23:37;;;;;;;402.27;77.03;;;;;;;;;;4991911;28;20490;-63
2022/10/31 08:26:21;;;;;;;446.63;74.43;;;;;;;;;;4972114;28;20544;-63
2022/10/31 08:29:05;;;;;;;332.47;70.63;;;;;;;;;;4971049;28;20034;-63
2022/10/31 08:31:49;;;;;;;243.80;58.07;;;;;;;;;;5037102;28;20039;-63
2022/10/31 08:34:32;;;;;;;299.17;62.73;;;;;;;;;;4967904;28;20038;-63
2022/10/31 08:37:19;;;;;;;204.03;47.63;;;;;;;;;;4965382;28;20379;-63
2022/10/31 08:40:03;;;;;;;177.27;42.07;;;;;;;;;;4968986;28;20042;-63
2022/10/31 08:42:47;;;;;;;151.53;39.83;;;;;;;;;;4972673;28;20022;-63
2022/10/31 08:45:31;;;;;;;94.63;34.07;;;;;;;;;;4965278;28;20029;-63
2022/10/31 08:48:15;;;;;;;97.80;36.50;;;;;;;;;;4973461;28;20057;-63
2022/10/31 08:50:59;;;;;;;58.90;30.33;;;;;;;;;;4976700;28;20030;-63
2022/10/31 08:53:42;;;;;;;56.77;29.63;;;;;;;;;;5005074;28;20046;-62
2022/10/31 08:56:26;;;;;;;49.10;28.13;;;;;;;;;;5002407;28;20092;-63
2022/10/31 08:59:10;;;;;;;48.07;28.33;;;;;;;;;;4965562;28;20079;-63
2022/10/31 09:01:54;;;;;;;50.47;27.97;;;;;;;;;;4964997;28;20074;-63
2022/10/31 09:04:37;;;;;;;55.37;30.57;;;;;;;;;;4967509;28;20031;-63
2022/10/31 09:07:21;;;;;;;75.10;37.70;;;;;;;;;;4987058;28;20402;-63
2022/10/31 09:10:05;;;;;;;56.57;31.60;;;;;;;;;;4987514;28;20032;-63
2022/10/31 09:12:49;;;;;;;57.90;33.33;;;;;;;;;;5019316;28;20066;-63
2022/10/31 09:15:32;;;;;;;57.40;34.63;;;;;;;;;;4976189;28;20390;-64
2022/10/31 09:18:16;;;;;;;52.23;33.17;;;;;;;;;;4967196;28;20034;-63
2022/10/31 09:21:00;;;;;;;48.50;32.20;;;;;;;;;;5035519;28;20174;-63
2022/10/31 09:23:44;;;;;;;54.67;33.50;;;;;;;;;;4959774;28;20042;-63
2022/10/31 09:26:28;;;;;;;52.03;32.90;;;;;;;;;;4954009;28;20050;-63
2022/10/31 09:29:11;;;;;;;43.23;29.70;;;;;;;;;;4973040;28;20039;-63
2022/10/31 09:31:55;;;;;;;44.37;30.17;;;;;;;;;;4990103;28;20046;-63
2022/10/31 09:34:39;;;;;;;41.33;28.97;;;;;;;;;;4992718;28;20052;-63
2022/10/31 09:37:23;;;;;;;38.57;27.93;;;;;;;;;;4985505;28;20042;-64
2022/10/31 09:40:07;;;;;;;40.77;27.37;;;;;;;;;;5004327;28;20037;-63
2022/10/31 09:42:50;;;;;;;35.77;25.80;;;;;;;;;;4967052;28;20027;-62
2022/10/31 09:45:34;;;;;;;38.87;27.27;;;;;;;;;;4966888;28;20050;-63
2022/10/31 09:48:18;;;;;;;38.13;27.77;;;;;;;;;;4976781;28;20112;-62
2022/10/31 09:51:02;;;;;;;37.23;26.70;;;;;;;;;;4974816;28;20061;-64
2022/10/31 09:53:46;;;;;;;41.67;28.90;;;;;;;;;;4969694;28;20428;-63
2022/10/31 09:56:30;;;;;;;43.23;30.60;;;;;;;;;;4967588;28;20023;-63
2022/10/31 09:59:14;;;;;;;42.83;29.67;;;;;;;;;;4970999;28;20041;-64
2022/10/31 10:01:58;;;;;;;42.75;30.05;;;;;;;;;;4962175;28;20034;-63
2022/10/31 10:04:42;;;;;;;43.80;29.83;;;;;;;;;;5029576;28;20097;-63
2022/10/31 10:07:27;;;;;;;40.30;27.38;;;;;;;;;;4983501;28;20029;-63
2022/10/31 10:10:11;;;;;;;37.92;26.33;;;;;;;;;;5010475;28;20450;-63
2022/10/31 10:12:55;;;;;;;38.20;26.58;;;;;;;;;;5000153;28;20105;-63
2022/10/31 10:15:38;;;;;;;37.85;25.05;;;;;;;;;;4947444;28;20027;-64
2022/10/31 10:18:22;;;;;;;37.72;24.58;;;;;;;;;;5012359;28;20112;-63
2022/10/31 10:21:06;;;;;;;38.70;26.17;;;;;;;;;;4971505;28;20038;-63
2022/10/31 10:23:50;;;;;;;36.78;24.02;;;;;;;;;;4947874;28;20097;-63
2022/10/31 10:26:34;;;;;;;38.67;23.58;;;;;;;;;;4953223;28;20500;-63
2022/10/31 10:29:17;;;;;;;37.78;24.65;;;;;;;;;;5003851;28;20374;-63
2022/10/31 10:32:01;;;;;;;37.50;23.08;;;;;;;;;;5028893;28;20480;-63
2022/10/31 10:34:45;;;;;;;32.80;21.38;;;;;;;;;;4987820;28;20026;-63
2022/10/31 10:37:29;;;;;;;35.35;23.27;;;;;;;;;;5020127;28;20028;-63
2022/10/31 10:40:13;;;;;;;32.92;20.90;;;;;;;;;;4956586;28;20042;-63
2022/10/31 10:49:02;;;;;;;30.52;18.45;;;;;;;;;;4964031;28;20042;-63
2022/10/31 10:51:47;;;;;;;29.90;17.77;;;;;;;;;;4960922;28;20444;-62
2022/10/31 10:54:30;;;;;;;34.33;19.55;;;;;;;;;;4981348;28;20481;-63
2022/10/31 10:57:14;;;;;;;32.28;19.15;;;;;;;;;;5031076;28;20024;-62
2022/10/31 10:59:58;;;;;;;31.75;19.80;;;;;;;;;;5072091;28;20467;-62
2022/10/31 11:02:41;;;;;;;36.17;21.52;;;;;;;;;;5029216;28;20033;-63
2022/10/31 11:05:25;;;;;;;36.65;20.20;;;;;;;;;;5015863;28;20059;-62
2022/10/31 11:08:09;;;;;;;38.22;22.30;;;;;;;;;;5020639;28;20062;-63
2022/10/31 11:10:53;;;;;;;39.85;22.65;;;;;;;;;;4972440;28;20038;-63
2022/10/31 11:13:36;;;;;;;38.35;20.73;;;;;;;;;;5072308;28;20040;-62
2022/10/31 11:16:20;;;;;;;39.00;22.70;;;;;;;;;;5021509;28;20486;-62
2022/10/31 11:19:04;;;;;;;48.03;24.35;;;;;;;;;;4989400;28;20508;-63
2022/10/31 11:21:48;;;;;;;43.83;24.60;;;;;;;;;;4998415;28;20067;-63
2022/10/31 11:24:32;;;;;;;41.42;23.02;;;;;;;;;;5032832;28;20034;-63
2022/10/31 11:27:15;;;;;;;40.22;22.58;;;;;;;;;;4991388;28;20632;-63
2022/10/31 11:29:59;;;;;;;38.67;20.73;;;;;;;;;;4978987;28;20039;-63
2022/10/31 11:32:43;;;;;;;36.40;21.05;;;;;;;;;;4966092;28;20038;-64
2022/10/31 11:35:27;;;;;;;34.80;20.08;;;;;;;;;;4967597;28;20031;-63
2022/10/31 11:38:11;;;;;;;30.65;19.05;;;;;;;;;;4971891;28;20031;-63
2022/10/31 11:40:55;;;;;;;40.00;20.13;;;;;;;;;;4969595;28;20468;-63
2022/10/31 11:43:38;;;;;;;37.47;21.50;;;;;;;;;;4966894;28;20411;-63
2022/10/31 11:46:22;;;;;;;34.75;20.48;;;;;;;;;;4981435;28;20027;-64
2022/10/31 11:49:06;;;;;;;34.78;19.15;;;;;;;;;;4964677;28;20034;-62
2022/10/31 11:51:50;;;;;;;36.33;19.98;;;;;;;;;;5010293;28;20107;-63
2022/10/31 11:54:21;;;;;;;35.85;20.70;;;;;;;;;;4984251;28;20035;-63
2022/10/31 11:56:46;;;;;;;32.60;18.83;;;;;;;;;;4967297;28;20122;-63
2022/10/31 11:59:19;;;;;;;32.42;18.88;;;;;;;;;;4971328;28;20097;-63
2022/10/31 12:01:49;;;;;;;35.08;18.58;;;;;;;;;;5038817;28;20031;-63
2022/10/31 12:04:16;;;;;;;34.42;19.90;;;;;;;;;;4968977;28;20030;-63
2022/10/31 12:06:43;;;;;;;36.10;18.65;;;;;;;;;;4966318;28;20042;-63
2022/10/31 12:09:11;;;;;;;30.20;17.45;;;;;;;;;;5015356;28;20102;-63
2022/10/31 12:11:42;;;;;;;30.23;17.60;;;;;;;;;;5050601;28;20435;-64
2022/10/31 12:14:11;;;;;;;30.65;18.30;;;;;;;;;;5001796;28;20092;-63
2022/10/31 12:16:39;;;;;;;33.50;17.80;;;;;;;;;;4996206;28;20062;-63
2022/10/31 12:19:23;;;;;;;32.40;19.23;;;;;;;;;;4967556;28;20494;-63
2022/10/31 12:21:57;;;;;;;34.20;20.17;;;;;;;;;;4968573;28;20062;-63
2022/10/31 12:24:27;;;;;;;35.90;20.02;;;;;;;;;;4986642;28;20061;-63
2022/10/31 12:26:53;;;;;;;36.10;19.70;;;;;;;;;;4970276;28;20030;-63
2022/10/31 12:29:30;;;;;;;37.25;20.67;;;;;;;;;;4995656;28;20047;-63
2022/10/31 12:32:01;;;;;;;32.40;18.75;;;;;;;;;;4964905;28;20120;-63
2022/10/31 12:34:45;;;;;;;33.42;18.77;;;;;;;;;;4969027;28;20031;-63
2022/10/31 12:37:18;;;;;;;32.38;18.85;;;;;;;;;;4985813;28;20030;-63
2022/10/31 12:39:54;;;;;;;32.53;18.42;;;;;;;;;;4967987;28;20068;-63
2022/10/31 12:42:39;;;;;;;33.67;20.73;;;;;;;;;;4974275;28;20092;-63
2022/10/31 12:45:10;;;;;;;37.28;20.60;;;;;;;;;;4970179;28;20034;-63
2022/10/31 12:47:35;;;;;;;44.10;24.00;;;;;;;;;;4963159;28;20027;-62
2022/10/31 12:50:06;;;;;;;40.50;23.83;;;;;;;;;;4968249;28;20023;-63
2022/10/31 12:52:31;;;;;;;36.65;21.45;;;;;;;;;;5036103;28;20018;-63
2022/10/31 12:54:57;;;;;;;39.85;22.27;;;;;;;;;;4967659;28;20087;-62
2022/10/31 12:57:36;;;;;;;43.75;23.55;;;;;;;;;;4979756;28;20106;-63
2022/10/31 13:00:04;;;;;;;40.53;23.98;;;;;;;;;;4968011;28;20026;-63
2022/10/31 13:02:32;;;;;;;39.45;22.17;;;;;;;;;;5002727;28;20032;-63
2022/10/31 13:05:05;;;;;;;39.20;22.05;;;;;;;;;;4976317;28;20114;-62
2022/10/31 13:07:36;;;;;;;35.55;21.45;;;;;;;;;;4990801;28;20037;-63
2022/10/31 13:10:05;;;;;;;41.38;24.40;;;;;;;;;;4965178;28;20023;-62
2022/10/31 13:12:32;;;;;;;44.65;23.70;;;;;;;;;;4964984;28;20041;-63
2022/10/31 13:15:00;;;;;;;47.13;25.42;;;;;;;;;;5013976;28;20503;-63
2022/10/31 13:17:31;;;;;;;41.40;23.55;;;;;;;;;;4971888;28;20059;-64
2022/10/31 13:20:22;;;;;;;42.63;25.08;;;;;;;;;;4982470;28;20113;-63
2022/10/31 13:22:56;;;;;;;47.33;25.00;;;;;;;;;;4986199;28;20035;-63
2022/10/31 13:25:27;;;;;;;42.58;23.77;;;;;;;;;;4972356;28;20090;-64
2022/10/31 13:28:01;;;;;;;39.60;24.20;;;;;;;;;;5004469;28;20695;-63
2022/10/31 13:30:27;;;;;;;41.05;23.83;;;;;;;;;;4967864;28;20151;-62
2022/10/31 13:33:00;;;;;;;42.25;24.17;;;;;;;;;;4965477;28;20027;-62
2022/10/31 13:35:31;;;;;;;43.17;23.42;;;;;;;;;;4986412;28;20131;-62
2022/10/31 13:38:17;;;;;;;39.60;22.40;;;;;;;;;;4967396;28;20490;-62
2022/10/31 13:40:45;;;;;;;43.95;22.95;;;;;;;;;;4979941;28;20038;-64
2022/10/31 13:43:10;;;;;;;42.95;22.92;;;;;;;;;;4958225;28;20033;-62
2022/10/31 13:45:47;;;;;;;35.40;18.67;;;;;;;;;;4966891;28;20039;-63
2022/10/31 13:48:15;;;;;;;43.72;22.52;;;;;;;;;;4964267;28;20027;-63
2022/10/31 13:50:40;;;;;;;39.72;22.75;;;;;;;;;;4967495;28;20030;-63
2022/10/31 13:53:28;;;;;;;40.13;21.88;;;;;;;;;;4973881;28;20462;-63
2022/10/31 13:56:12;;;;;;;43.17;22.48;;;;;;;;;;4991383;28;20059;-63
2022/10/31 13:58:37;;;;;;;37.45;21.05;;;;;;;;;;4966167;28;20023;-63
2022/10/31 14:01:05;;;;;;;38.42;21.70;;;;;;;;;;4972797;28;20426;-63
2022/10/31 14:03:33;;;;;;;41.17;20.88;;;;;;;;;;4965628;28;20038;-62
2022/10/31 14:05:58;;;;;;;36.92;22.17;;;;;;;;;;4964863;28;20035;-63
2022/10/31 14:08:24;;;;;;;39.83;22.05;;;;;;;;;;4966345;28;20517;-63
2022/10/31 14:10:53;;;;;;;33.38;20.10;;;;;;;;;;4970163;28;20030;-62
2022/10/31 14:13:25;;;;;;;35.42;20.08;;;;;;;;;;4962679;28;20027;-62
2022/10/31 14:15:53;;;;;;;34.50;19.58;;;;;;;;;;4976053;28;20026;-63
2022/10/31 14:18:22;;;;;;;33.42;19.05;;;;;;;;;;4961256;28;20030;-62
2022/10/31 14:20:48;;;;;;;33.80;17.20;;;;;;;;;;4978473;28;20035;-63
2022/10/31 14:23:32;;;;;;;30.33;17.45;;;;;;;;;;4966243;28;20033;-62
2022/10/31 14:26:15;;;;;;;30.05;17.42;;;;;;;;;;4974926;28;20026;-63
2022/10/31 14:28:41;;;;;;;27.27;16.52;;;;;;;;;;4967104;28;20463;-63
2022/10/31 14:31:26;;;;;;;33.67;16.35;;;;;;;;;;4968067;28;20038;-63
2022/10/31 14:33:53;;;;;;;31.98;16.42;;;;;;;;;;4990877;28;20100;-63
2022/10/31 14:36:23;;;;;;;29.00;15.25;;;;;;;;;;4966739;28;20034;-63
2022/10/31 14:38:57;;;;;;;26.65;15.25;;;;;;;;;;4972666;28;20023;-62
2022/10/31 14:41:28;;;;;;;31.85;17.33;;;;;;;;;;4966434;28;20035;-63
2022/10/31 14:44:20;;;;;;;29.48;16.02;;;;;;;;;;4967719;28;20034;-62
2022/10/31 14:46:50;;;;;;;29.45;17.55;;;;;;;;;;4985392;28;20318;-63
2022/10/31 14:49:31;;;;;;;32.72;17.38;;;;;;;;;;4966952;28;20030;-63
2022/10/31 14:51:58;;;;;;;31.88;17.70;;;;;;;;;;4967632;28;20027;-63
2022/10/31 14:54:32;;;;;;;29.35;17.02;;;;;;;;;;4966815;28;20104;-63
2022/10/31 14:57:00;;;;;;;33.78;17.55;;;;;;;;;;4959134;28;20040;-62
2022/10/31 14:59:30;;;;;;;32.63;18.23;;;;;;;;;;4965320;28;20031;-63
2022/10/31 15:02:08;;;;;;;31.08;16.90;;;;;;;;;;4965460;28;20114;-64
2022/10/31 15:04:34;;;;;;;30.35;17.25;;;;;;;;;;4976601;28;20055;-63
2022/10/31 15:07:10;;;;;;;30.52;16.42;;;;;;;;;;4989340;28;20034;-63
2022/10/31 15:09:37;;;;;;;33.55;17.58;;;;;;;;;;4967724;28;20109;-63
2022/10/31 15:12:21;;;;;;;29.35;17.38;;;;;;;;;;4985046;28;20027;-63
2022/10/31 15:14:46;;;;;;;33.85;17.98;;;;;;;;;;4979865;28;20416;-63
2022/10/31 15:17:12;;;;;;;36.00;19.90;;;;;;;;;;4978041;28;20015;-63
2022/10/31 15:19:37;;;;;;;35.70;18.75;;;;;;;;;;5045088;28;20107;-63
2022/10/31 15:22:03;;;;;;;34.83;18.38;;;;;;;;;;4966062;28;20066;-63
2022/10/31 15:24:36;;;;;;;34.30;19.80;;;;;;;;;;4990998;28;20388;-63
2022/10/31 15:27:01;;;;;;;40.15;19.98;;;;;;;;;;4983444;28;20031;-62
2022/10/31 15:29:26;;;;;;;39.50;22.75;;;;;;;;;;4965281;28;20377;-62
2022/10/31 15:31:53;;;;;;;41.08;22.02;;;;;;;;;;4965120;28;20574;-61